METAR Data
IDs: Format: Raw Decoded Include TAF

Data at: 0223 UTC 24 Sep 2018

KSBO 240215Z AUTO 11003KT 10SM CLR 25/22 A3008 RMK AO2
KSBO 240155Z AUTO 12005KT 10SM CLR 25/22 A3008 RMK AO2
KSBO 240135Z AUTO 11004KT 10SM CLR 25/22 A3008 RMK AO2
KSBO 240115Z AUTO 10003KT 10SM CLR 26/22 A3007 RMK AO2
KSBO 240055Z AUTO 11004KT 10SM CLR 26/22 A3006 RMK AO2
KSBO 240035Z AUTO 12004KT 10SM CLR 26/22 A3006 RMK AO2
KSBO 240015Z AUTO 13005KT 10SM CLR 27/22 A3005 RMK AO2
KSBO 232355Z AUTO 13006KT 10SM CLR 27/22 A3005 RMK AO2
KSBO 232335Z AUTO 13006KT 10SM CLR 27/22 A3004 RMK AO2
KSBO 232315Z AUTO 14007KT 10SM CLR 28/22 A3004 RMK AO2
KSBO 232255Z AUTO 15008KT 10SM SCT065 SCT080 28/22 A3003 RMK AO2
KSBO 232235Z AUTO 15009KT 10SM SCT050 BKN065 OVC080 29/22 A3003 RMK AO2
KSBO 232215Z AUTO 14011KT 10SM BKN050 OVC065 30/22 A3002 RMK AO2
KSBO 232155Z AUTO 13005KT 10SM SCT050 SCT065 BKN075 32/18 A3001 RMK AO2
KSBO 232135Z AUTO 11004KT 10SM SCT050 32/19 A3001 RMK AO2
KSBO 232115Z AUTO 08004KT 10SM CLR 32/19 A3001 RMK AO2
KSBO 232055Z AUTO 07003KT 10SM SCT080 32/19 A3001 RMK AO2
KSBO 232035Z AUTO 00000KT 10SM SCT080 31/19 A3001 RMK AO2
KSBO 232015Z AUTO 10005KT 10SM SCT049 32/19 A3002 RMK AO2
KSBO 231955Z AUTO 07005KT 10SM CLR 32/20 A3002 RMK AO2
KSBO 231935Z AUTO 13003KT 10SM CLR 31/19 A3003 RMK AO2
KSBO 231915Z AUTO 17006KT 10SM SCT049 32/20 A3004 RMK AO2
KSBO 231855Z AUTO 00000KT 10SM SCT049 SCT080 31/20 A3005 RMK AO2
KSBO 231835Z AUTO 00000KT 10SM SCT047 BKN055 31/20 A3006 RMK AO2
KSBO 231815Z AUTO 00000KT 10SM CLR 31/20 A3007 RMK AO2
KSBO 231755Z AUTO 16004KT 10SM CLR 31/20 A3008 RMK AO2
KSBO 231735Z AUTO 11005KT 10SM CLR 30/19 A3008 RMK AO2
KSBO 231715Z AUTO 09003KT 10SM SCT038 31/20 A3009 RMK AO2
KSBO 231655Z AUTO 11005KT 10SM BKN038 BKN045 30/20 A3009 RMK AO2
KSBO 231635Z AUTO 04004KT 10SM SCT036 SCT042 BKN048 30/21 A3010 RMK AO2
KSBO 231615Z AUTO 00000KT 10SM SCT036 SCT045 29/21 A3010 RMK AO2
KSBO 231555Z AUTO 11003KT 10SM CLR 28/20 A3011 RMK AO2
KSBO 231535Z AUTO 09004KT 10SM SCT028 28/21 A3011 RMK AO2
KSBO 231515Z AUTO 12003KT 10SM SCT022 SCT026 28/21 A3011 RMK AO2
KSBO 231455Z AUTO 00000KT 10SM SCT020 SCT026 28/21 A3011 RMK AO2
KSBO 231435Z AUTO 12005KT 10SM CLR 27/22 A3011 RMK AO2
KSBO 231415Z AUTO 07005KT 10SM CLR 27/22 A3011 RMK AO2
KSBO 231355Z AUTO 10005KT 10SM CLR 26/21 A3011 RMK AO2
KSBO 231335Z AUTO 10004KT 10SM CLR 25/21 A3010 RMK AO2
KSBO 231315Z AUTO 06003KT 10SM CLR 24/21 A3010 RMK AO2
KSBO 231255Z AUTO 07003KT 10SM CLR 23/21 A3009 RMK AO2
KSBO 231235Z AUTO 08003KT 10SM CLR 22/20 A3009 RMK AO2
KSBO 231215Z AUTO 00000KT 10SM CLR 21/20 A3008 RMK AO2
KSBO 231155Z AUTO 00000KT 10SM CLR 21/20 A3008 RMK AO2
KSBO 231135Z AUTO 00000KT 10SM CLR 20/20 A3007 RMK AO2
KSBO 231115Z AUTO 00000KT 10SM CLR 20/20 A3006 RMK AO2
KSBO 231055Z AUTO 00000KT 10SM CLR 19/18 A3006 RMK AO2
KSBO 231035Z AUTO 00000KT 10SM CLR 20/18 A3006 RMK AO2
KSBO 231015Z AUTO 00000KT 10SM CLR 19/18 A3006 RMK AO2
KSBO 230955Z AUTO 00000KT 10SM CLR 20/19 A3006 RMK AO2
KSBO 230935Z AUTO 00000KT 10SM CLR 19/18 A3006 RMK AO2
KSBO 230915Z AUTO 00000KT 10SM CLR 19/18 A3006 RMK AO2
KSBO 230850Z AUTO 00000KT 10SM CLR 20/20 A3005 RMK AO2
KSBO 230835Z AUTO 00000KT 10SM CLR 20/20 A3005 RMK AO2
KSBO 230815Z AUTO 00000KT 10SM CLR 20/20 A3006 RMK AO2
KSBO 230755Z AUTO 00000KT 10SM CLR 20/20 A3005 RMK AO2
KSBO 230735Z AUTO 00000KT 10SM CLR 20/19 A3005 RMK AO2
KSBO 230715Z AUTO 00000KT 10SM CLR 21/20 A3006 RMK AO2
KSBO 230655Z AUTO 00000KT 10SM CLR 21/20 A3006 RMK AO2
KSBO 230635Z AUTO 00000KT 10SM CLR 21/20 A3006 RMK AO2
KSBO 230615Z AUTO 00000KT 10SM CLR 20/20 A3007 RMK AO2
KSBO 230555Z AUTO 00000KT 10SM CLR 21/20 A3007 RMK AO2
KSBO 230535Z AUTO 00000KT 10SM CLR 21/20 A3008 RMK AO2
KSBO 230515Z AUTO 00000KT 10SM CLR 21/20 A3008 RMK AO2
KSBO 230455Z AUTO 00000KT 10SM CLR 22/21 A3008 RMK AO2
KSBO 230435Z AUTO 00000KT 10SM CLR 22/21 A3008 RMK AO2
KSBO 230415Z AUTO 00000KT 10SM CLR 23/21 A3009 RMK AO2
KSBO 230355Z AUTO 00000KT 10SM CLR 23/21 A3009 RMK AO2
KSBO 230335Z AUTO 00000KT 10SM CLR 23/21 A3010 RMK AO2
KSBO 230315Z AUTO 00000KT 10SM CLR 23/21 A3009 RMK AO2
KSBO 230255Z AUTO 00000KT 10SM CLR 23/21 A3009 RMK AO2
KSBO 230235Z AUTO 00000KT 10SM CLR 24/20 A3009 RMK AO2
KSBO 230215Z AUTO 00000KT 10SM CLR 25/20 A3009 RMK AO2
KSBO 230155Z AUTO 00000KT 10SM CLR 25/20 A3009 RMK AO2
KSBO 230135Z AUTO 17003KT 10SM CLR 25/20 A3008 RMK AO2
KSBO 230115Z AUTO 16003KT 10SM CLR 25/20 A3007 RMK AO2
KSBO 230055Z AUTO 00000KT 10SM CLR 26/19 A3005 RMK AO2
KSBO 230035Z AUTO 14004KT 10SM CLR 26/19 A3005 RMK AO2
KSBO 230015Z AUTO 15004KT 10SM CLR 27/18 A3004 RMK AO2
KSBO 222355Z AUTO 13006KT 10SM CLR 28/18 A3004 RMK AO2
KSBO 222335Z AUTO 12003KT 10SM CLR 28/19 A3003 RMK AO2
KSBO 222315Z AUTO 13005KT 10SM CLR 30/19 A3003 RMK AO2
KSBO 222255Z AUTO 12005KT 10SM CLR 30/18 A3003 RMK AO2
KSBO 222235Z AUTO 11004KT 10SM CLR 31/18 A3003 RMK AO2
KSBO 222215Z AUTO 12006KT 10SM CLR 31/17 A3003 RMK AO2
KSBO 222155Z AUTO 09006KT 10SM CLR 32/18 A3003 RMK AO2
KSBO 222135Z AUTO 12007KT 10SM CLR 32/18 A3003 RMK AO2
KSBO 222115Z AUTO 10006KT 10SM CLR 32/18 A3003 RMK AO2
KSBO 222055Z AUTO 10006KT 10SM CLR 32/18 A3004 RMK AO2
KSBO 222035Z AUTO 12007KT 10SM CLR 32/18 A3004 RMK AO2
KSBO 222015Z AUTO 12008KT 10SM CLR 32/18 A3004 RMK AO2
KSBO 221955Z AUTO 08008KT 10SM SCT050 SCT075 32/18 A3005 RMK AO2
KSBO 221935Z AUTO 11007KT 10SM SCT050 SCT060 32/18 A3006 RMK AO2
KSBO 221915Z AUTO 12005KT 10SM CLR 32/18 A3006 RMK AO2
KSBO 221855Z AUTO 09007KT 10SM CLR 32/20 A3007 RMK AO2
KSBO 221835Z AUTO 13007KT 10SM CLR 31/20 A3008 RMK AO2
KSBO 221815Z AUTO 11005KT 10SM SCT048 SCT050 SCT065 31/20 A3009 RMK AO2
KSBO 221755Z AUTO 08005KT 10SM SCT050 SCT065 31/20 A3010 RMK AO2
KSBO 221735Z AUTO 07006KT 10SM CLR 31/19 A3011 RMK AO2
KSBO 221715Z AUTO 10006KT 10SM CLR 31/18 A3011 RMK AO2
KSBO 221655Z AUTO 10005KT 10SM CLR 30/18 A3012 RMK AO2
KSBO 221635Z AUTO 08006KT 060V130 10SM CLR 30/20 A3013 RMK AO2
KSBO 221615Z AUTO 09005KT 10SM CLR 30/19 A3013 RMK AO2
KSBO 221555Z AUTO 10006KT 10SM CLR 30/20 A3014 RMK AO2
KSBO 221535Z AUTO 07005KT 10SM CLR 28/20 A3014 RMK AO2
KSBO 221515Z AUTO 11006KT 10SM CLR 28/20 A3014 RMK AO2
KSBO 221455Z AUTO 00000KT 10SM CLR 27/20 A3014 RMK AO2
KSBO 221435Z AUTO 03003KT 10SM CLR 27/20 A3014 RMK AO2